2022年7月6日

时间 代码 天气 温度 能见度 天花板 METAR/SPECI
4:19 上午
M
64 °F 9 mi 2.500 ft 320° 320° 8 kt METAR CYOO 060819Z AUTO 32008KT 9SM SCT016 BKN025 18/16 A2987 RMK SLP116 DENSITY ALT 1000FT
4:00 上午
M
64 °F 9 mi 1.600 ft 310° 310° 8 kt METAR CYOO 060800Z AUTO 31008KT 9SM OVC016 18/16 A2988 RMK SLP120 DENSITY ALT 1100FT
3:00 上午
M
64 °F 9 mi 1.400 ft 310° 310° 5 kt METAR CYOO 060700Z AUTO 31005KT 9SM BKN014 BKN027 18/17 A2987 RMK PRESRR SLP116 DENSITY ALT 1100FT
2:51 上午
M
64 °F 9 mi 1.400 ft 320° 320° 5 kt METAR CYOO 060651Z AUTO 32005KT 9SM BKN014 BKN025 18/17 A2985 RMK SLP112 DENSITY ALT 1100FT
2:34 上午
M
64 °F 9 mi 2.500 ft 310° 310° 6 kt METAR CYOO 060634Z AUTO 31006KT 9SM BKN025 18/16 A2985 RMK SLP110 DENSITY ALT 1000FT
2:17 上午
M
63 °F 9 mi 2.300 ft 300° 300° 5 kt METAR CYOO 060617Z AUTO 30005KT 9SM BKN023 17/16 A2984 RMK SLP107 DENSITY ALT 1000FT
2:00 上午
V
63 °F 9 mi - 310° 310° 3 kt METAR CYOO 060600Z AUTO 31003KT 9SM SCT025 17/16 A2983 RMK SLP104 DENSITY ALT 1000FT
1:00 上午
V
64 °F 9 mi - 300° 300° 5 kt METAR CYOO 060500Z AUTO 30005KT 9SM CLR 18/16 A2984 RMK SLP107 DENSITY ALT 1000FT
12:24 上午
V
66 °F 9 mi - 320° 320° 6 kt METAR CYOO 060424Z AUTO 32006KT 9SM FEW014 SCT019 19/17 A2984 RMK SLP106 DENSITY ALT 1100FT
12:00 上午
M
66 °F 9 mi 1.700 ft 330° 330° 6 kt METAR CYOO 060400Z AUTO 33006KT 9SM BKN017 19/17 A2983 RMK SLP101 DENSITY ALT 1200FT

2022年7月5日

时间 代码 天气 温度 能见度 天花板 METAR/SPECI
11:17 下午
M
66 °F 9 mi 1.500 ft 310° 310° 11 kt METAR CYOO 060317Z AUTO 31011KT 9SM BKN015 19/17 A2982 RMK SLP098 DENSITY ALT 1200FT
11:00 下午
V
66 °F 9 mi - 320° 320° 8 kt METAR CYOO 060300Z AUTO 32008KT 9SM SCT020 19/17 A2981 RMK SLP095 DENSITY ALT 1200FT
10:58 下午
V
66 °F 9 mi - 320° 320° 9 - 15 kt METAR CYOO 060258Z AUTO 32009G15KT 9SM SCT020 19/17 A2981 RMK SLP095 DENSITY ALT 1200FT
10:08 下午
M
68 °F 9 mi 2.400 ft 320° 320° 9 kt METAR CYOO 060208Z AUTO 32009KT 9SM SCT016 OVC024 20/17 A2980 RMK SLP094 DENSITY ALT 1300FT
9:11 下午
M
68 °F 9 mi 1.800 ft 300° 300° 11 kt METAR CYOO 060111Z AUTO 30011KT 9SM BKN018 OVC028 20/18 A2978 RMK SLP085 DENSITY ALT 1400FT
9:00 下午
M
70 °F 9 mi 2.800 ft 300° 300° 10 - 18 kt METAR CYOO 060100Z AUTO 30010G18KT 9SM FEW020 OVC028 21/18 A2977 RMK SLP084 DENSITY ALT 1400FT
8:00 下午
V
72 °F 9 mi 3.800 ft 300° 300° 8 kt METAR CYOO 060000Z AUTO 30008KT 9SM FEW026 OVC038 22/20 A2977 RMK SLP082 DENSITY ALT 1600FT
7:48 下午
V
72 °F 6 mi 4.000 ft 300° 300° 7 kt METAR CYOO 052348Z AUTO 30007KT 6SM BR FEW024 SCT030 OVC040 22/20 A2977 RMK SLP080 DENSITY ALT 1600FT
7:00 下午
V
70 °F 5 mi 4.600 ft Var 000° 0 kt METAR CYOO 052300Z AUTO 00000KT 5SM BR FEW025 OVC046 21/20 A2974 RMK SLP072 DENSITY ALT 1600FT
6:38 下午
M
70 °F 5 mi 2.900 ft Var 000° 0 kt METAR CYOO 052238Z AUTO 00000KT 5SM BR SCT007 BKN029 BKN034 OVC048 21/20 A2974 RMK SLP071 DENSITY ALT 1600FT
6:00 下午
I
70 °F 4 mi 500 ft Var 000° 0 kt METAR CYOO 052200Z AUTO 00000KT 4SM BR BKN005 OVC011 21/20 A2974 RMK SLP074 DENSITY ALT 1500FT
5:00 下午
L
68 °F 4 mi 300 ft Var Var 2 kt METAR CYOO 052100Z AUTO VRB02KT 4SM BR OVC003 20/19 A2975 RMK SLP075 DENSITY ALT 1400FT
4:23 下午
L
66 °F 3 mi 300 ft 100° 100° 4 kt METAR CYOO 052023Z AUTO 10004KT 3SM BR OVC003 19/19 A2976 RMK SLP078 DENSITY ALT 1300FT
4:00 下午
L
66 °F 1¾ mi 300 ft 110° 110° 4 kt METAR CYOO 052000Z AUTO 11004KT 1 3/4SM BR OVC003 19/18 A2976 RMK SLP080 DENSITY ALT 1200FT
3:49 下午
L
66 °F 1¼ mi 300 ft 110° 110° 5 kt METAR CYOO 051949Z AUTO 11005KT 1 1/4SM BR OVC003 19/18 A2977 RMK SLP081 DENSITY ALT 1200FT
3:00 下午
L
66 °F 1½ mi 300 ft 140° 140° 3 kt METAR CYOO 051900Z AUTO 14003KT 090V160 1 1/2SM -RA BR OVC003 19/18 A2978 RMK SLP087 DENSITY ALT 1200FT
2:00 下午
I
64 °F 1 mi 500 ft 110° 110° 6 kt METAR CYOO 051800Z AUTO 11006KT 1SM -RA BR OVC005 18/18 A2980 RMK PCPN 1.0MM PAST HR SLP093 DENSITY ALT 1100FT
1:15 下午
I
64 °F 1½ mi 700 ft 150° 150° 6 kt METAR CYOO 051715Z AUTO 15006KT 1 1/2SM -RA BR BKN007 BKN014 OVC022 18/18 A2981 RMK SLP097 DENSITY ALT 1100FT
1:00 下午
I
64 °F 1½ mi 2.200 ft 130° 130° 6 kt METAR CYOO 051700Z AUTO 13006KT 100V170 1 1/2SM -RA BR FEW010 SCT014 OVC022 18/17 A2982 RMK SLP099 DENSITY ALT 1100FT
12:41 下午
I
66 °F 2¼ mi 2.100 ft 130° 130° 6 kt METAR CYOO 051641Z AUTO 13006KT 2 1/4SM -RA BR SCT014 BKN021 OVC032 19/17 A2983 RMK SLP102 DENSITY ALT 1200FT
12:39 下午
I
66 °F 2½ mi 3.000 ft 130° 130° 7 kt METAR CYOO 051639Z AUTO 13007KT 2 1/2SM -RA BR FEW014 SCT021 BKN030 OVC036 19/17 A2983 RMK SLP102 DENSITY ALT 1200FT
12:00 下午
V
68 °F 9 mi 4.400 ft 140° 140° 8 kt METAR CYOO 051600Z AUTO 14008KT 9SM -RA BKN044 OVC055 20/17 A2984 RMK SLP106 DENSITY ALT 1300FT
11:50 上午
V
68 °F 9 mi 4.600 ft 120° 120° 8 kt METAR CYOO 051550Z AUTO 12008KT 9SM -RA BKN046 OVC055 20/16 A2984 RMK SLP106 DENSITY ALT 1300FT
11:19 上午
V
70 °F 9 mi 7.100 ft 120° 120° 11 - 16 kt METAR CYOO 051519Z AUTO 12011G16KT 9SM BKN071 OVC082 21/17 A2983 RMK PRESFR SLP104 DENSITY ALT 1400FT
11:00 上午
V
68 °F 9 mi 7.600 ft 100° 100° 10 kt METAR CYOO 051500Z AUTO 10010KT 9SM BKN076 OVC091 20/17 A2985 RMK SLP109 DENSITY ALT 1300FT
10:25 上午
V
68 °F 9 mi 8.100 ft 090° 090° 7 kt METAR CYOO 051425Z AUTO 09007KT 9SM OVC081 20/17 A2987 RMK SLP117 DENSITY ALT 1300FT
10:00 上午
V
68 °F 9 mi 8.600 ft 110° 110° 4 kt METAR CYOO 051400Z AUTO 11004KT 9SM -RA OVC086 20/17 A2989 RMK SLP124 DENSITY ALT 1200FT
9:57 上午
V
68 °F 9 mi 8.600 ft 090° 090° 5 kt METAR CYOO 051357Z AUTO 09005KT 9SM -RA OVC086 20/17 A2989 RMK SLP124 DENSITY ALT 1200FT
9:00 上午
V
68 °F 9 mi 11.000 ft 170° 170° 6 kt METAR CYOO 051300Z AUTO 17006KT 090V190 9SM SCT086 OVC110 20/16 A2991 RMK SLP129 DENSITY ALT 1200FT
8:59 上午
V
68 °F 9 mi 11.000 ft 160° 160° 5 kt METAR CYOO 051259Z AUTO 16005KT 090V190 9SM FEW081 SCT090 OVC110 20/16 A2991 RMK SLP128 DENSITY ALT 1200FT
8:44 上午
V
66 °F 9 mi 12.000 ft 100° 100° 7 - 17 kt METAR CYOO 051244Z AUTO 10007G17KT 9SM -RA SCT081 SCT091 OVC120 19/16 A2991 RMK SLP129 DENSITY ALT 1100FT
8:26 上午
V
66 °F 9 mi 12.000 ft 090° 090° 7 kt METAR CYOO 051226Z AUTO 09007KT 9SM FEW100 OVC120 19/16 A2992 RMK SLP133 DENSITY ALT 1100FT
8:00 上午
V
66 °F 9 mi 12.000 ft 090° 090° 10 kt METAR CYOO 051200Z AUTO 09010KT 9SM -RA SCT100 BKN120 OVC140 19/16 A2992 RMK SLP132 DENSITY ALT 1100FT
7:57 上午
V
66 °F 9 mi 12.000 ft 090° 090° 10 kt METAR CYOO 051157Z AUTO 09010KT 9SM -RA FEW100 BKN120 OVC140 19/15 A2992 RMK SLP134 DENSITY ALT 1100FT
7:00 上午
V
66 °F 9 mi 12.000 ft 090° 090° 7 kt METAR CYOO 051100Z AUTO 09007KT 9SM BKN120 OVC140 19/15 A2992 RMK SLP134 DENSITY ALT 1100FT
6:00 上午
V
66 °F 9 mi 11.000 ft 090° 090° 6 kt METAR CYOO 051000Z AUTO 09006KT 9SM OVC110 19/14 A2994 RMK SLP138 DENSITY ALT 1000FT
5:58 上午
V
66 °F 9 mi 12.000 ft 080° 080° 6 kt METAR CYOO 050958Z AUTO 08006KT 9SM OVC120 19/14 A2994 RMK SLP139 DENSITY ALT 1000FT
5:00 上午
V
66 °F 9 mi 14.000 ft 100° 100° 6 kt METAR CYOO 050900Z AUTO 10006KT 9SM OVC140 19/13 A2995 RMK SLP142 DENSITY ALT 1000FT
4:00 上午
V
66 °F 9 mi 14.000 ft 090° 090° 6 kt METAR CYOO 050800Z AUTO 09006KT 9SM OVC140 19/12 A2997 RMK SLP150 DENSITY ALT 1000FT
3:00 上午
V
66 °F 9 mi 14.000 ft 090° 090° 5 kt METAR CYOO 050700Z AUTO 09005KT 9SM OVC140 19/12 A2999 RMK SLP158 DENSITY ALT 1000FT
2:00 上午
V
66 °F 9 mi 13.000 ft 090° 090° 5 kt METAR CYOO 050600Z AUTO 09005KT 9SM OVC130 19/12 A3001 RMK SLP165 DENSITY ALT 1000FT
1:38 上午
V
66 °F 9 mi 12.000 ft 100° 100° 6 kt METAR CYOO 050538Z AUTO 10006KT 9SM SCT081 OVC120 19/12 A3002 RMK SLP167 DENSITY ALT 1000FT
1:25 上午
V
66 °F 9 mi 11.000 ft 090° 090° 7 kt METAR CYOO 050525Z AUTO 09007KT 9SM -RA FEW055 SCT085 BKN110 OVC130 19/12 A3003 RMK SLP169 DENSITY ALT 1000FT
1:00 上午
V
66 °F 9 mi 11.000 ft 090° 090° 7 kt METAR CYOO 050500Z AUTO 09007KT 9SM FEW071 SCT085 BKN110 OVC130 19/12 A3003 RMK SLP172 DENSITY ALT 1000FT
12:00 上午
V
66 °F 9 mi 10.000 ft 080° 080° 6 kt METAR CYOO 050400Z AUTO 08006KT 9SM BKN100 OVC120 19/13 A3005 RMK SLP177 DENSITY ALT 900FT

2022年7月4日

时间 代码 天气 温度 能见度 天花板 METAR/SPECI
11:00 下午
V
64 °F 9 mi 18.000 ft 070° 070° 3 kt METAR CYOO 050300Z AUTO 07003KT 9SM SCT150 BKN180 18/13 A3007 RMK SLP184 DENSITY ALT 800FT
10:00 下午
V
66 °F 9 mi 12.000 ft 120° 120° 4 kt METAR CYOO 050200Z AUTO 12004KT 9SM BKN120 BKN140 OVC180 19/12 A3008 RMK SLP187 DENSITY ALT 900FT
9:00 下午
V
68 °F 9 mi 20.000 ft 130° 130° 2 kt METAR CYOO 050100Z AUTO 13002KT 9SM BKN200 BKN220 20/13 A3007 RMK SLP185 DENSITY ALT 1000FT
8:00 下午
V
72 °F 9 mi 11.000 ft 160° 160° 4 kt METAR CYOO 050000Z AUTO 16004KT 9SM FEW081 BKN110 22/12 A3007 RMK SLP185 DENSITY ALT 1300FT
7:00 下午
V
72 °F 9 mi 6.600 ft 130° 130° 5 kt METAR CYOO 042300Z AUTO 13005KT 9SM OVC066 22/12 A3008 RMK SLP189 DENSITY ALT 1200FT
6:00 下午
V
72 °F 9 mi 6.600 ft 070° 070° 3 kt METAR CYOO 042200Z AUTO 07003KT 9SM OVC066 22/11 A3009 RMK SLP192 DENSITY ALT 1200FT
5:00 下午
V
72 °F 9 mi 9.900 ft 080° 080° 4 kt METAR CYOO 042100Z AUTO 08004KT 9SM SCT071 OVC099 22/10 A3010 RMK SLP196 DENSITY ALT 1200FT
4:00 下午
V
72 °F 9 mi 9.100 ft Var Var 2 kt METAR CYOO 042000Z AUTO VRB02KT 9SM OVC091 22/12 A3013 RMK SLP204 DENSITY ALT 1200FT
3:00 下午
V
72 °F 9 mi 9.600 ft 150° 150° 3 kt METAR CYOO 041900Z AUTO 15003KT 130V210 9SM OVC096 22/09 A3015 RMK SLP210 DENSITY ALT 1200FT
2:00 下午
V
72 °F 9 mi 10.000 ft 150° 150° 7 kt METAR CYOO 041800Z AUTO 15007KT 9SM BKN100 OVC170 22/08 A3015 RMK SLP211 DENSITY ALT 1200FT
1:00 下午
V
73 °F 9 mi 16.000 ft 160° 160° 6 kt METAR CYOO 041700Z AUTO 16006KT 120V200 9SM BKN160 23/10 A3015 RMK SLP213 DENSITY ALT 1300FT
12:00 下午
V
75 °F 9 mi - 180° 180° 6 kt METAR CYOO 041600Z AUTO 18006KT 130V220 9SM FEW110 24/09 A3016 RMK SLP215 DENSITY ALT 1300FT
11:00 上午
V
75 °F 9 mi - Var Var 2 kt METAR CYOO 041500Z AUTO VRB02KT 9SM CLR 24/10 A3016 RMK SLP216 DENSITY ALT 1400FT
10:00 上午
V
73 °F 9 mi - Var 000° 0 kt METAR CYOO 041400Z AUTO 00000KT 9SM CLR 23/08 A3017 RMK SLP217 DENSITY ALT 1200FT
9:00 上午
V
70 °F 9 mi - Var Var 3 kt METAR CYOO 041300Z AUTO VRB03KT 9SM CLR 21/08 A3017 RMK SLP219 DENSITY ALT 1000FT
8:00 上午
V
66 °F 9 mi 19.000 ft 360° 360° 3 kt METAR CYOO 041200Z AUTO 36003KT 340V050 9SM BKN190 19/11 A3017 RMK SLP218 DENSITY ALT 800FT
7:00 上午
V
55 °F 9 mi 18.000 ft 010° 010° 4 kt METAR CYOO 041100Z AUTO 01004KT 9SM BKN180 BKN210 13/10 A3017 RMK SLP218
6:00 上午
V
54 °F 9 mi 21.000 ft 020° 020° 3 kt METAR CYOO 041000Z AUTO 02003KT 340V050 9SM OVC210 12/09 A3016 RMK SLP216
5:00 上午
V
55 °F 9 mi 22.000 ft Var 000° 0 kt METAR CYOO 040900Z AUTO 00000KT 9SM OVC220 13/09 A3016 RMK SLP215
较旧的数据

下载我们的应用程序

在您的手机和平板电脑上轻松访问所有航空天气。
有许多网站上没有的功能,如离线支持和个人机场列表。

Studio Eveline

Benalmádena
España

我们和第三方通过cookies跟踪您在我们网站上的上网行为。如果您继续,我们认为您同意我们的cookie政策。 了解更多